Time;durP1;ratioP1;P1;durP2;ratioP2;P2;SDS_P1;SDS_P2;PMS_P1;PMS_P2;Temp;Humidity;BMP_temperature;BMP_pressure;BME280_temperature;BME280_humidity;BME280_pressure;Samples;Min_cycle;Max_cycle;Signal;HPM_P1;HPM_P2
2022/03/14 00:02:14;;;;;;;101.03;56.15;;;26.40;2124.80;;;;;;5069743;28;20467;-57
2022/03/14 00:04:40;;;;;;;248.80;134.57;;;26.30;2150.40;;;;;;5068870;28;20097;-61
2022/03/14 00:07:06;;;;;;;160.30;85.78;;;26.40;2124.80;;;;;;5070379;28;20111;-56
2022/03/14 00:09:32;;;;;;;173.88;91.10;;;26.50;2124.80;;;;;;5069884;28;20100;-57
2022/03/14 00:11:58;;;;;;;214.73;113.65;;;26.50;2099.20;;;;;;5069860;28;20553;-60
2022/03/14 00:14:25;;;;;;;301.23;145.05;;;26.40;2099.20;;;;;;5070191;28;20378;-56
2022/03/14 00:16:52;;;;;;;240.63;121.68;;;26.50;2099.20;;;;;;5069817;28;20024;-56
2022/03/14 00:19:20;;;;;;;281.15;150.75;;;26.50;2099.20;;;;;;5069726;28;20058;-56
2022/03/14 00:21:46;;;;;;;301.05;171.27;;;26.40;2099.20;;;;;;5069866;28;20033;-55
2022/03/14 00:24:12;;;;;;;527.60;274.48;;;26.50;2124.80;;;;;;5069483;28;20016;-55
2022/03/14 00:26:39;;;;;;;213.75;107.78;;;26.30;2124.80;;;;;;5069073;28;20463;-57
2022/03/14 00:29:08;;;;;;;138.70;77.25;;;26.20;2124.80;;;;;;5069535;28;20426;-56
2022/03/14 00:31:36;;;;;;;304.23;141.38;;;26.10;2124.80;;;;;;5070115;28;20053;-59
2022/03/14 00:34:02;;;;;;;189.77;97.38;;;26.10;2124.80;;;;;;5070636;28;20060;-57
2022/03/14 00:36:27;;;;;;;113.60;64.05;;;26.20;2124.80;;;;;;5070779;28;20052;-57
2022/03/14 00:38:54;;;;;;;138.43;75.15;;;26.20;2150.40;;;;;;5070476;28;20508;-59
2022/03/14 00:41:20;;;;;;;99.65;53.63;;;26.10;2150.40;;;;;;5070420;28;20479;-57
2022/03/14 00:43:46;;;;;;;72.65;43.83;;;26.00;2176.00;;;;;;5070860;28;20032;-57
2022/03/14 00:46:16;;;;;;;63.33;35.72;;;26.00;2176.00;;;;;;5070464;28;20108;-56
2022/03/14 00:48:42;;;;;;;62.00;34.35;;;25.90;2176.00;;;;;;5070066;28;20064;-57
2022/03/14 00:51:08;;;;;;;50.67;29.70;;;25.60;2201.60;;;;;;5070211;28;20070;-57
2022/03/14 00:53:35;;;;;;;51.30;27.45;;;25.60;2201.60;;;;;;5070287;28;20036;-57
2022/03/14 00:56:01;;;;;;;135.32;68.30;;;25.80;2201.60;;;;;;5069955;28;20020;-56
2022/03/14 00:58:29;;;;;;;93.75;47.92;;;25.90;2201.60;;;;;;5070099;28;20043;-56
2022/03/14 01:00:55;;;;;;;50.00;28.92;;;26.00;2176.00;;;;;;5070347;28;20438;-56
2022/03/14 01:03:21;;;;;;;38.40;20.05;;;26.10;2176.00;;;;;;5069961;28;20031;-57
2022/03/14 01:05:46;;;;;;;29.90;18.92;;;26.10;2176.00;;;;;;5070215;28;20028;-57
2022/03/14 01:08:12;;;;;;;34.08;21.60;;;26.00;2201.60;;;;;;5069885;28;20475;-57
2022/03/14 01:10:38;;;;;;;29.15;16.23;;;26.00;2201.60;;;;;;5070116;28;20172;-56
2022/03/14 01:13:04;;;;;;;36.22;21.90;;;25.80;2201.60;;;;;;5070037;28;20028;-56
2022/03/14 01:15:34;;;;;;;38.28;20.77;;;25.60;2201.60;;;;;;5069681;28;20032;-56
2022/03/14 01:18:00;;;;;;;40.88;21.33;;;25.60;2201.60;;;;;;5069708;28;20037;-56
2022/03/14 01:20:27;;;;;;;34.42;19.40;;;25.70;2201.60;;;;;;5069821;28;20025;-57
2022/03/14 01:22:55;;;;;;;35.83;18.33;;;25.60;2201.60;;;;;;5069794;28;20036;-56
2022/03/14 01:25:24;;;;;;;30.60;18.58;;;25.60;2201.60;;;;;;5069841;28;20170;-57
2022/03/14 01:27:50;;;;;;;32.67;18.25;;;25.60;2201.60;;;;;;5069680;28;20123;-56
2022/03/14 01:30:17;;;;;;;45.90;22.52;;;0.90;2201.60;;;;;;5069683;28;20064;-56
2022/03/14 01:32:43;;;;;;;36.60;21.05;;;0.90;2201.60;;;;;;5069680;28;20037;-57
2022/03/14 01:35:09;;;;;;;29.75;17.02;;;25.60;2201.60;;;;;;5069580;28;20030;-56
2022/03/14 01:37:34;;;;;;;22.45;12.52;;;25.60;2201.60;;;;;;5069758;28;20111;-58
2022/03/14 01:40:00;;;;;;;22.60;13.40;;;25.60;2201.60;;;;;;5069664;28;20386;-57
2022/03/14 01:42:26;;;;;;;28.17;17.10;;;25.60;2201.60;;;;;;5069839;28;20036;-57
2022/03/14 01:44:52;;;;;;;32.88;16.85;;;0.90;2201.60;;;;;;5069970;28;20044;-57
2022/03/14 01:47:17;;;;;;;28.55;16.40;;;0.90;2201.60;;;;;;5070055;28;20024;-56
2022/03/14 01:49:45;;;;;;;30.25;14.70;;;0.90;2201.60;;;;;;5069720;28;20020;-56
2022/03/14 01:52:11;;;;;;;25.75;16.58;;;0.90;2201.60;;;;;;5069678;28;20070;-57
2022/03/14 01:54:38;;;;;;;29.00;15.00;;;0.80;2201.60;;;;;;5069666;28;20025;-56
2022/03/14 01:57:05;;;;;;;23.60;15.00;;;0.70;2201.60;;;;;;5069526;28;20035;-56
2022/03/14 01:59:32;;;;;;;21.05;12.65;;;0.70;2201.60;;;;;;5069356;28;20032;-57
2022/03/14 02:01:59;;;;;;;31.90;17.40;;;0.60;2201.60;;;;;;5069828;28;20500;-56
2022/03/14 02:04:24;;;;;;;27.15;13.57;;;0.50;2201.60;;;;;;5069705;28;20046;-57
2022/03/14 02:06:54;;;;;;;29.17;14.82;;;0.70;2201.60;;;;;;5069516;28;20383;-56
2022/03/14 02:09:20;;;;;;;18.85;10.60;;;0.70;2201.60;;;;;;5069223;28;20032;-56
2022/03/14 02:11:56;;;;;;;23.77;14.82;;;0.80;2201.60;;;;;;5069413;28;20028;-57
2022/03/14 02:14:23;;;;;;;29.58;17.55;;;0.60;2201.60;;;;;;5069563;28;20386;-56
2022/03/14 02:16:49;;;;;;;24.80;14.00;;;0.50;2201.60;;;;;;5069292;28;20036;-56
2022/03/14 02:19:15;;;;;;;31.27;17.38;;;0.50;2201.60;;;;;;5069519;28;20056;-57
2022/03/14 02:21:41;;;;;;;26.17;13.07;;;0.60;2201.60;;;;;;5069233;28;20474;-56
2022/03/14 02:24:07;;;;;;;22.25;13.90;;;0.70;2201.60;;;;;;5069365;28;20403;-56
2022/03/14 02:26:39;;;;;;;28.42;17.35;;;0.60;2201.60;;;;;;5069242;28;20425;-57
2022/03/14 02:29:08;;;;;;;35.85;21.08;;;0.60;2201.60;;;;;;5072899;28;20374;-57
2022/03/14 02:31:37;;;;;;;36.92;16.27;;;0.60;2201.60;;;;;;5072558;28;20490;-57
2022/03/14 02:34:11;;;;;;;29.48;16.05;;;0.70;2201.60;;;;;;5072631;28;20024;-57
2022/03/14 02:36:39;;;;;;;32.13;16.52;;;0.50;2201.60;;;;;;5072762;28;20078;-55
2022/03/14 02:39:07;;;;;;;27.85;17.23;;;0.50;2201.60;;;;;;5072614;28;20037;-56
2022/03/14 02:41:33;;;;;;;26.63;17.35;;;0.60;2201.60;;;;;;5072838;28;20032;-55
2022/03/14 02:44:01;;;;;;;34.17;19.35;;;0.60;2201.60;;;;;;5072405;28;20484;-56
2022/03/14 02:46:27;;;;;;;100.07;50.88;;;0.60;2201.60;;;;;;5072820;28;20363;-56
2022/03/14 02:48:52;;;;;;;86.60;47.55;;;0.60;2201.60;;;;;;5072391;28;20027;-59
2022/03/14 02:51:18;;;;;;;48.35;27.13;;;0.70;2201.60;;;;;;5072526;28;20526;-56
2022/03/14 02:53:44;;;;;;;37.83;20.48;;;0.60;2201.60;;;;;;5072430;28;20031;-58
2022/03/14 02:56:10;;;;;;;37.50;21.02;;;0.60;2201.60;;;;;;5072252;28;20103;-57
2022/03/14 02:58:39;;;;;;;93.85;49.38;;;0.40;2201.60;;;;;;5072269;28;20123;-57
2022/03/14 03:01:05;;;;;;;68.65;37.40;;;0.50;2201.60;;;;;;5072483;28;20041;-56
2022/03/14 03:03:31;;;;;;;56.63;29.20;;;0.60;2201.60;;;;;;5072060;28;20382;-57
2022/03/14 03:05:58;;;;;;;36.80;18.95;;;0.50;2201.60;;;;;;5072314;28;20031;-58
2022/03/14 03:08:24;;;;;;;28.60;17.08;;;0.50;2201.60;;;;;;5072346;28;20029;-58
2022/03/14 03:10:50;;;;;;;27.77;17.48;;;0.60;2201.60;;;;;;5072096;28;20162;-57
2022/03/14 03:13:16;;;;;;;25.10;13.43;;;0.40;2201.60;;;;;;5072184;28;20233;-56
2022/03/14 03:15:42;;;;;;;27.90;16.20;;;0.50;2201.60;;;;;;5071814;28;20048;-56
2022/03/14 03:18:09;;;;;;;31.30;15.90;;;0.30;2201.60;;;;;;5071880;28;20098;-56
2022/03/14 03:20:35;;;;;;;27.65;15.20;;;0.30;2201.60;;;;;;5072052;28;20071;-58
2022/03/14 03:23:02;;;;;;;27.48;14.90;;;0.40;2201.60;;;;;;5071644;28;20028;-56
2022/03/14 03:25:28;;;;;;;23.55;12.35;;;0.20;2201.60;;;;;;5071906;28;20032;-58
2022/03/14 03:27:54;;;;;;;24.30;13.10;;;0.30;2201.60;;;;;;5072254;28;20040;-56
2022/03/14 03:30:19;;;;;;;20.02;13.50;;;0.40;2201.60;;;;;;5071379;28;20428;-56
2022/03/14 03:32:46;;;;;;;21.17;13.25;;;0.50;2201.60;;;;;;5071626;28;20068;-57
2022/03/14 03:35:12;;;;;;;23.35;14.43;;;0.30;2201.60;;;;;;5071415;28;20025;-57
2022/03/14 03:37:38;;;;;;;30.35;17.60;;;0.30;2201.60;;;;;;5071573;28;20056;-57
2022/03/14 03:40:04;;;;;;;29.13;14.88;;;0.10;2201.60;;;;;;5071645;28;20033;-58
2022/03/14 03:42:30;;;;;;;21.50;12.52;;;0.00;2201.60;;;;;;5071321;28;20032;-58
2022/03/14 03:44:56;;;;;;;22.77;14.43;;;12.90;2201.60;;;;;;5071678;28;20467;-57
2022/03/14 03:47:22;;;;;;;28.00;15.65;;;0.00;2201.60;;;;;;5071593;28;20029;-58
2022/03/14 03:49:48;;;;;;;28.73;16.27;;;0.10;2201.60;;;;;;5071251;28;20028;-57
2022/03/14 03:52:13;;;;;;;29.52;16.55;;;0.10;2201.60;;;;;;5071176;28;20123;-58
2022/03/14 03:54:39;;;;;;;30.58;17.00;;;0.00;2201.60;;;;;;5070927;28;20060;-57
2022/03/14 03:57:06;;;;;;;28.55;16.08;;;13.00;2201.60;;;;;;5071173;28;20025;-58
2022/03/14 03:59:32;;;;;;;33.63;20.27;;;0.00;2201.60;;;;;;5071030;28;20040;-56
2022/03/14 04:01:58;;;;;;;29.80;16.73;;;0.10;2201.60;;;;;;5071078;28;20033;-56
2022/03/14 04:04:26;;;;;;;27.63;15.65;;;0.10;2201.60;;;;;;5071193;28;20100;-58
2022/03/14 04:06:55;;;;;;;23.00;15.52;;;0.10;2201.60;;;;;;5070943;28;20037;-57
2022/03/14 04:09:21;;;;;;;26.08;15.00;;;0.10;2201.60;;;;;;5070784;28;20023;-59
2022/03/14 04:11:47;;;;;;;23.23;13.80;;;0.10;2201.60;;;;;;5071169;28;20115;-57
2022/03/14 04:14:13;;;;;;;37.70;23.80;;;12.90;2201.60;;;;;;5070758;28;20455;-57
2022/03/14 04:16:41;;;;;;;32.70;21.70;;;12.90;2201.60;;;;;;5070726;28;20036;-57
2022/03/14 04:19:07;;;;;;;44.60;26.75;;;0.10;2201.60;;;;;;5070891;28;20024;-59
2022/03/14 04:21:36;;;;;;;44.05;21.77;;;13.00;2201.60;;;;;;5070457;28;20020;-56
2022/03/14 04:24:06;;;;;;;32.83;22.55;;;12.90;2201.60;;;;;;5070459;28;20088;-56
2022/03/14 04:26:32;;;;;;;29.33;19.23;;;12.90;2201.60;;;;;;5070728;28;20074;-57
2022/03/14 04:28:58;;;;;;;32.42;18.98;;;13.10;2201.60;;;;;;5070506;28;20023;-56
2022/03/14 04:31:24;;;;;;;60.30;35.60;;;13.10;2201.60;;;;;;5070584;28;20591;-57
2022/03/14 04:33:50;;;;;;;53.67;31.60;;;12.90;2201.60;;;;;;5070208;28;20025;-57
2022/03/14 04:36:15;;;;;;;37.45;21.25;;;12.90;2201.60;;;;;;5070563;28;20024;-58
2022/03/14 04:38:41;;;;;;;32.03;21.65;;;13.00;2201.60;;;;;;5070184;28;20032;-58
2022/03/14 04:41:07;;;;;;;36.97;24.48;;;13.00;2201.60;;;;;;5070612;28;20467;-56
2022/03/14 04:43:33;;;;;;;30.52;17.35;;;13.00;2201.60;;;;;;5070361;28;20491;-56
2022/03/14 04:45:58;;;;;;;30.20;16.58;;;13.10;2201.60;;;;;;5070461;28;20025;-57
2022/03/14 04:48:24;;;;;;;21.98;14.18;;;13.20;2201.60;;;;;;5070618;28;20016;-57
2022/03/14 04:50:51;;;;;;;20.60;13.75;;;13.10;2201.60;;;;;;5069675;28;20051;-56
2022/03/14 04:53:17;;;;;;;17.50;12.13;;;13.10;2201.60;;;;;;5070326;28;20386;-56
2022/03/14 04:55:44;;;;;;;23.80;16.13;;;13.00;2201.60;;;;;;5070237;28;20067;-57
2022/03/14 04:58:14;;;;;;;29.02;16.65;;;13.00;2201.60;;;;;;5069980;28;20036;-58
2022/03/14 05:00:41;;;;;;;26.23;15.07;;;13.00;2201.60;;;;;;5069932;28;20024;-56
2022/03/14 05:03:08;;;;;;;33.55;21.10;;;12.90;2201.60;;;;;;5070136;28;20033;-56
2022/03/14 05:05:34;;;;;;;51.58;35.28;;;0.00;2201.60;;;;;;5070008;28;20047;-58
2022/03/14 05:08:02;;;;;;;53.38;34.38;;;0.00;2201.60;;;;;;5069942;28;20032;-58
2022/03/14 05:10:28;;;;;;;30.75;18.10;;;0.10;2201.60;;;;;;5070033;28;20055;-56
2022/03/14 05:12:54;;;;;;;23.85;13.98;;;0.10;2201.60;;;;;;5070250;28;20498;-57
2022/03/14 05:15:19;;;;;;;33.08;19.10;;;0.10;2201.60;;;;;;5069757;28;20021;-56
2022/03/14 05:17:46;;;;;;;44.22;27.70;;;0.00;2201.60;;;;;;5069913;28;20051;-56
2022/03/14 05:20:12;;;;;;;44.00;27.42;;;0.10;2201.60;;;;;;5069738;28;20070;-58
2022/03/14 05:22:48;;;;;;;40.70;23.77;;;0.20;2201.60;;;;;;5069738;28;20068;-57
2022/03/14 05:25:18;;;;;;;41.08;23.02;;;0.20;2201.60;;;;;;5069986;28;20134;-58
2022/03/14 05:27:44;;;;;;;29.23;21.55;;;0.40;2201.60;;;;;;5069940;28;20104;-58
2022/03/14 05:30:10;;;;;;;25.80;18.50;;;0.20;2201.60;;;;;;5069697;28;20120;-57
2022/03/14 05:32:37;;;;;;;26.70;14.93;;;0.20;2201.60;;;;;;5069836;28;20056;-57
2022/03/14 05:35:03;;;;;;;26.85;20.90;;;0.40;2201.60;;;;;;5069633;28;20025;-56
2022/03/14 05:37:29;;;;;;;19.58;13.43;;;0.40;2201.60;;;;;;5069532;28;20040;-56
2022/03/14 05:39:56;;;;;;;21.40;10.73;;;0.30;2201.60;;;;;;5070036;28;20024;-57
2022/03/14 05:42:23;;;;;;;21.40;11.43;;;12.90;2201.60;;;;;;5069727;28;20379;-56
2022/03/14 05:44:48;;;;;;;24.85;11.80;;;0.40;2201.60;;;;;;5069575;28;20021;-56
2022/03/14 05:47:14;;;;;;;31.92;13.40;;;0.50;2201.60;;;;;;5070079;28;20031;-56
2022/03/14 05:49:40;;;;;;;21.20;11.00;;;0.50;2201.60;;;;;;5068946;28;20076;-57
2022/03/14 05:52:06;;;;;;;41.75;20.17;;;0.70;2201.60;;;;;;5068870;28;20031;-59
2022/03/14 05:54:34;;;;;;;25.77;14.77;;;0.80;2201.60;;;;;;5069462;28;20021;-56
2022/03/14 05:57:00;;;;;;;22.58;13.68;;;0.90;2201.60;;;;;;5069657;28;20115;-56
2022/03/14 05:59:27;;;;;;;23.00;12.93;;;25.60;2201.60;;;;;;5069720;28;20028;-56
2022/03/14 06:01:53;;;;;;;25.52;13.45;;;25.70;2201.60;;;;;;5070406;28;20112;-59
2022/03/14 06:04:19;;;;;;;19.90;12.50;;;25.60;2201.60;;;;;;5073085;28;20112;-56
2022/03/14 06:06:45;;;;;;;30.92;15.10;;;25.60;2201.60;;;;;;5073428;28;20506;-55
2022/03/14 06:09:11;;;;;;;29.10;17.67;;;0.90;2201.60;;;;;;5073110;28;20070;-56
2022/03/14 06:11:38;;;;;;;21.75;13.45;;;0.60;2201.60;;;;;;5073314;28;20017;-55
2022/03/14 06:14:05;;;;;;;26.20;13.63;;;0.70;2201.60;;;;;;5073194;28;20032;-56
2022/03/14 06:16:31;;;;;;;28.10;16.92;;;0.70;2201.60;;;;;;5073001;28;20021;-55
2022/03/14 06:18:56;;;;;;;25.42;13.93;;;0.80;2201.60;;;;;;5073024;28;20047;-55
2022/03/14 06:21:22;;;;;;;28.48;15.90;;;51.60;2227.20;;;;;;5073056;28;20017;-54
2022/03/14 06:23:48;;;;;;;35.60;19.90;;;102.80;2124.80;;;;;;5073007;28;20450;-56
2022/03/14 06:26:14;;;;;;;33.30;20.30;;;179.80;1766.40;;;;;;5073162;28;20051;-60
2022/03/14 06:28:41;;;;;;;32.85;21.10;;;231.20;1561.60;;;;;;5072580;28;20032;-58
2022/03/14 06:31:09;;;;;;;34.38;21.15;;;282.20;1433.60;;;;;;5072580;28;20068;-56
2022/03/14 06:33:34;;;;;;;28.92;19.30;;;333.00;1331.20;;;;;;5072905;28;20378;-54
2022/03/14 06:36:00;;;;;;;26.27;19.17;;;333.70;1280.00;;;;;;5071058;28;20121;-55
2022/03/14 06:38:27;;;;;;;29.45;21.35;;;359.10;1203.20;;;;;;5072852;28;20043;-56
2022/03/14 06:40:56;;;;;;;29.00;22.02;;;384.60;1177.60;;;;;;5072845;28;20536;-55
2022/03/14 06:43:22;;;;;;;26.75;21.67;;;410.00;1152.00;;;;;;5072676;28;20031;-54
2022/03/14 06:45:48;;;;;;;31.90;23.13;;;435.60;1075.20;;;;;;5072670;28;20036;-55
2022/03/14 06:48:14;;;;;;;31.88;22.73;;;461.10;1024.00;;;;;;5071556;28;20032;-56
2022/03/14 06:50:50;;;;;;;38.25;28.83;;;486.40;998.40;;;;;;5071036;28;20013;-56
2022/03/14 06:53:15;;;;;;;119.70;99.72;;;461.70;998.40;;;;;;5070037;28;20036;-56
2022/03/14 06:55:41;;;;;;;65.03;55.55;;;486.70;972.80;;;;;;5072457;28;20077;-57
2022/03/14 06:58:07;;;;;;;239.93;197.20;;;512.40;921.60;;;;;;5072310;28;20032;-55
2022/03/14 07:00:34;;;;;;;68.78;56.78;;;538.00;921.60;;;;;;5072059;28;20032;-56
2022/03/14 07:02:59;;;;;;;61.80;50.33;;;538.00;896.00;;;;;;5071919;28;20032;-56
2022/03/14 07:05:26;;;;;;;54.63;47.70;;;512.90;896.00;;;;;;5072280;28;20027;-56
2022/03/14 07:07:53;;;;;;;48.95;39.70;;;512.30;896.00;;;;;;5072050;28;20036;-56
2022/03/14 07:10:19;;;;;;;65.35;52.88;;;512.90;870.40;;;;;;5072590;28;20547;-55
2022/03/14 07:12:46;;;;;;;78.22;64.43;;;537.80;870.40;;;;;;5071965;28;20028;-59
2022/03/14 07:15:14;;;;;;;80.65;68.18;;;537.80;896.00;;;;;;5072114;28;20052;-55
2022/03/14 07:17:40;;;;;;;103.22;90.85;;;538.50;870.40;;;;;;5071874;28;20395;-58
2022/03/14 07:20:07;;;;;;;98.45;83.97;;;563.70;870.40;;;;;;5072000;28;20059;-56
2022/03/14 07:22:38;;;;;;;87.13;69.35;;;563.80;870.40;;;;;;5071620;28;20060;-55
2022/03/14 07:25:06;;;;;;;90.18;76.97;;;563.80;844.80;;;;;;5072147;28;20025;-59
2022/03/14 07:27:33;;;;;;;97.07;79.10;;;589.20;844.80;;;;;;5071720;28;20031;-59
2022/03/14 07:29:59;;;;;;;100.32;84.20;;;589.70;819.20;;;;;;5071598;28;20031;-56
2022/03/14 07:32:24;;;;;;;101.38;79.78;;;614.40;819.20;;;;;;5071715;28;20127;-56
2022/03/14 07:34:50;;;;;;;92.75;77.97;;;614.80;768.00;;;;;;5071444;28;20059;-56
2022/03/14 07:37:16;;;;;;;91.75;79.78;;;615.30;768.00;;;;;;5071619;28;20909;-56
2022/03/14 07:39:41;;;;;;;107.00;89.85;;;640.60;742.40;;;;;;5071476;28;20078;-56
2022/03/14 07:42:07;;;;;;;97.10;86.47;;;640.70;742.40;;;;;;5071570;28;20383;-56
2022/03/14 07:44:33;;;;;;;90.10;79.72;;;640.80;742.40;;;;;;5071287;28;20025;-60
2022/03/14 07:46:59;;;;;;;98.18;81.50;;;640.40;742.40;;;;;;5071240;28;20477;-57
2022/03/14 07:49:27;;;;;;;147.27;88.90;;;665.60;768.00;;;;;;5071392;28;20033;-57
2022/03/14 07:51:53;;;;;;;105.63;86.95;;;665.90;742.40;;;;;;5071112;28;20035;-60
2022/03/14 07:54:20;;;;;;;101.47;82.00;;;666.40;716.80;;;;;;5071277;28;20032;-57
2022/03/14 07:56:45;;;;;;;93.70;83.13;;;666.00;742.40;;;;;;5071365;28;20035;-56
2022/03/14 07:59:11;;;;;;;105.18;92.47;;;666.20;716.80;;;;;;5070922;28;20371;-56
2022/03/14 08:01:37;;;;;;;100.80;86.07;;;666.50;691.20;;;;;;5070984;28;20402;-56
2022/03/14 08:04:03;;;;;;;82.53;72.65;;;692.00;665.60;;;;;;5070843;28;20021;-55
2022/03/14 08:06:29;;;;;;;83.68;74.03;;;666.40;691.20;;;;;;5070815;28;20032;-56
2022/03/14 08:08:58;;;;;;;86.40;76.22;;;691.60;691.20;;;;;;5071131;28;20024;-56
2022/03/14 08:11:30;;;;;;;86.40;77.13;;;691.90;691.20;;;;;;5071230;28;20429;-56
2022/03/14 08:13:57;;;;;;;76.20;68.07;;;666.10;716.80;;;;;;5071104;28;20064;-59
2022/03/14 08:16:23;;;;;;;87.68;76.05;;;691.30;691.20;;;;;;5070668;28;20043;-60
2022/03/14 08:18:49;;;;;;;90.35;77.03;;;665.80;716.80;;;;;;5070506;28;20085;-57
2022/03/14 08:21:14;;;;;;;92.60;82.53;;;665.90;716.80;;;;;;5070774;28;20024;-56
2022/03/14 08:23:41;;;;;;;96.10;82.22;;;691.30;716.80;;;;;;5070453;28;20031;-56
2022/03/14 08:26:07;;;;;;;96.38;85.75;;;666.50;716.80;;;;;;5070095;28;20032;-56
2022/03/14 08:28:34;;;;;;;88.32;79.20;;;691.70;691.20;;;;;;5070226;28;20082;-61
2022/03/14 08:31:01;;;;;;;85.47;75.30;;;691.20;691.20;;;;;;5070287;28;20049;-57
2022/03/14 08:33:28;;;;;;;96.65;80.65;;;691.70;691.20;;;;;;5070519;28;20035;-56
2022/03/14 08:35:59;;;;;;;80.05;71.50;;;691.90;691.20;;;;;;5070408;28;20031;-56
2022/03/14 08:38:25;;;;;;;88.25;78.85;;;716.80;691.20;;;;;;5070643;28;20075;-57
2022/03/14 08:40:51;;;;;;;65.85;59.10;;;717.50;665.60;;;;;;5070377;28;20020;-56
2022/03/14 08:43:16;;;;;;;67.90;57.42;;;691.80;665.60;;;;;;5070393;28;20426;-56
2022/03/14 08:45:43;;;;;;;75.53;65.20;;;691.40;665.60;;;;;;5070231;28;20099;-55
2022/03/14 08:48:13;;;;;;;67.45;56.90;;;666.50;691.20;;;;;;5070265;28;20086;-56
2022/03/14 08:50:40;;;;;;;61.25;49.70;;;640.60;691.20;;;;;;5070006;28;20038;-56
2022/03/14 08:53:07;;;;;;;75.07;66.78;;;666.50;691.20;;;;;;5070516;28;20042;-55
2022/03/14 08:55:33;;;;;;;77.03;64.47;;;615.30;742.40;;;;;;5070162;28;20025;-55
2022/03/14 08:57:58;;;;;;;81.15;65.53;;;640.30;716.80;;;;;;5069997;28;20035;-60
2022/03/14 09:00:27;;;;;;;73.70;59.58;;;666.00;716.80;;;;;;5070143;28;20025;-55
2022/03/14 09:02:54;;;;;;;55.50;49.33;;;640.60;716.80;;;;;;5070089;28;20044;-58
2022/03/14 09:05:20;;;;;;;72.00;62.33;;;615.10;716.80;;;;;;5069775;28;20020;-55
2022/03/14 09:07:46;;;;;;;64.50;54.08;;;589.70;742.40;;;;;;5070230;28;20075;-55
2022/03/14 09:10:13;;;;;;;57.60;47.88;;;563.60;793.60;;;;;;5069988;28;20032;-55
2022/03/14 09:12:42;;;;;;;82.72;63.78;;;563.80;793.60;;;;;;5069736;28;20490;-55
2022/03/14 09:15:09;;;;;;;158.82;115.47;;;537.90;844.80;;;;;;5069975;28;20035;-59
2022/03/14 09:17:51;;;;;;;79.28;62.17;;;512.40;844.80;;;;;;5069945;28;20037;-54
2022/03/14 09:20:19;;;;;;;96.13;75.20;;;486.80;896.00;;;;;;5069880;28;20406;-54
2022/03/14 09:22:46;;;;;;;76.63;56.30;;;460.90;972.80;;;;;;5069925;28;20037;-54
2022/03/14 09:25:14;;;;;;;89.55;58.45;;;435.90;972.80;;;;;;5069768;28;20032;-59
2022/03/14 09:27:41;;;;;;;77.55;50.70;;;410.30;998.40;;;;;;5069859;28;20035;-55
2022/03/14 09:30:08;;;;;;;50.55;36.88;;;410.00;1024.00;;;;;;5069935;28;20032;-56
2022/03/14 09:32:34;;;;;;;71.72;52.53;;;384.90;1024.00;;;;;;5069768;28;20053;-55
2022/03/14 09:35:00;;;;;;;46.42;37.22;;;409.70;1049.60;;;;;;5069476;28;20115;-55
2022/03/14 09:37:30;;;;;;;32.03;24.35;;;384.60;1049.60;;;;;;5073446;28;20032;-55
2022/03/14 09:39:56;;;;;;;75.43;57.25;;;384.60;998.40;;;;;;5073902;28;20446;-55
2022/03/14 09:42:24;;;;;;;69.47;49.00;;;384.10;1024.00;;;;;;5072583;28;20043;-60
2022/03/14 09:44:53;;;;;;;61.58;40.15;;;359.10;1075.20;;;;;;5073516;28;20550;-55
2022/03/14 09:47:22;;;;;;;373.17;209.18;;;359.30;1075.20;;;;;;5073652;28;20504;-55
2022/03/14 09:49:48;;;;;;;42.15;32.10;;;384.10;1075.20;;;;;;5073934;28;20090;-55
2022/03/14 09:52:16;;;;;;;35.05;26.48;;;359.00;1100.80;;;;;;5073654;28;20029;-56
2022/03/14 09:54:42;;;;;;;54.30;27.23;;;359.00;1126.40;;;;;;5073493;28;20028;-60
2022/03/14 09:57:08;;;;;;;42.70;31.90;;;359.30;1100.80;;;;;;5073403;28;20498;-54
2022/03/14 09:59:36;;;;;;;46.55;31.63;;;384.30;1100.80;;;;;;5073425;28;20020;-60
2022/03/14 10:02:02;;;;;;;48.65;31.33;;;384.20;1100.80;;;;;;5073174;28;20446;-54
2022/03/14 10:04:27;;;;;;;41.35;27.27;;;384.10;1075.20;;;;;;5073205;28;20024;-59
2022/03/14 10:06:53;;;;;;;36.55;24.92;;;384.00;1049.60;;;;;;5073252;28;20039;-54
2022/03/14 10:09:19;;;;;;;80.68;50.63;;;358.80;1100.80;;;;;;5073073;28;20017;-54
2022/03/14 10:11:45;;;;;;;79.60;46.70;;;359.10;1100.80;;;;;;5073382;28;20382;-54
2022/03/14 10:14:17;;;;;;;31.98;21.35;;;384.00;1100.80;;;;;;5073025;28;20459;-54
2022/03/14 10:16:44;;;;;;;30.30;23.00;;;359.20;1100.80;;;;;;5072820;28;20035;-54
2022/03/14 10:19:10;;;;;;;34.60;26.80;;;359.20;1100.80;;;;;;5072785;28;20036;-54
2022/03/14 10:21:37;;;;;;;25.98;20.17;;;384.00;1100.80;;;;;;5073101;28;20022;-54
2022/03/14 10:24:11;;;;;;;31.63;22.17;;;359.00;1126.40;;;;;;5072832;28;20082;-54
2022/03/14 10:26:41;;;;;;;41.85;27.63;;;358.80;1126.40;;;;;;5073281;28;20106;-54
2022/03/14 10:29:09;;;;;;;30.90;21.75;;;384.00;1126.40;;;;;;5072981;28;20051;-55
2022/03/14 10:31:45;;;;;;;96.80;70.25;;;359.20;1100.80;;;;;;5072691;28;20048;-60
2022/03/14 10:34:13;;;;;;;36.47;27.67;;;384.00;1100.80;;;;;;5072781;28;20127;-55
2022/03/14 10:36:50;;;;;;;30.30;20.02;;;384.10;1126.40;;;;;;5072737;28;20101;-54
2022/03/14 10:39:20;;;;;;;29.77;19.63;;;359.20;1126.40;;;;;;5072859;28;20123;-60
2022/03/14 10:42:15;;;;;;;24.35;18.77;;;358.50;1152.00;;;;;;5072595;28;20100;-55
2022/03/14 10:44:42;;;;;;;39.78;23.65;;;358.60;1152.00;;;;;;4990947;28;20116;-54
2022/03/14 10:47:12;;;;;;;199.95;121.30;;;358.50;1152.00;;;;;;4990851;28;20493;-54
2022/03/14 10:49:40;;;;;;;26.38;19.83;;;358.70;1152.00;;;;;;4990693;28;20042;-54
2022/03/14 10:52:09;;;;;;;28.77;19.13;;;358.80;1152.00;;;;;;4991044;28;20018;-54
2022/03/14 10:54:39;;;;;;;37.30;23.05;;;358.80;1126.40;;;;;;4990735;28;20516;-54
2022/03/14 10:57:20;;;;;;;34.97;17.88;;;358.80;1152.00;;;;;;4990978;28;20607;-60
2022/03/14 10:59:47;;;;;;;24.48;16.05;;;359.00;1152.00;;;;;;4990870;28;20399;-54
2022/03/14 11:02:27;;;;;;;57.25;36.13;;;359.00;1126.40;;;;;;4990733;28;20046;-55
2022/03/14 11:04:54;;;;;;;64.95;39.88;;;359.20;1100.80;;;;;;4990640;28;20026;-54
2022/03/14 11:07:24;;;;;;;43.05;20.75;;;359.30;1100.80;;;;;;4990560;28;20089;-54
2022/03/14 11:09:58;;;;;;;32.88;22.08;;;359.20;1126.40;;;;;;4990479;28;20034;-54
2022/03/14 11:12:29;;;;;;;60.60;36.75;;;384.00;1100.80;;;;;;4990795;28;20030;-54
2022/03/14 11:15:04;;;;;;;41.15;28.35;;;359.20;1100.80;;;;;;4990626;28;20038;-53
2022/03/14 11:17:35;;;;;;;33.97;20.52;;;384.10;1075.20;;;;;;4990412;28;20048;-55
2022/03/14 11:20:01;;;;;;;37.17;25.48;;;384.00;1100.80;;;;;;4995932;28;20500;-55
2022/03/14 11:22:31;;;;;;;26.10;17.60;;;384.30;1100.80;;;;;;5071874;28;20521;-55
2022/03/14 11:25:00;;;;;;;37.88;25.25;;;384.00;1126.40;;;;;;5071948;28;20033;-55
2022/03/14 11:27:28;;;;;;;17.35;13.70;;;359.30;1100.80;;;;;;5071902;28;20110;-54
2022/03/14 11:30:07;;;;;;;24.80;13.15;;;384.10;1100.80;;;;;;5072075;28;20033;-55
2022/03/14 11:32:34;;;;;;;38.30;23.42;;;384.20;1152.00;;;;;;5071227;28;20036;-56
2022/03/14 11:35:03;;;;;;;31.75;20.48;;;384.30;1100.80;;;;;;5071432;28;20033;-59
2022/03/14 11:37:31;;;;;;;190.20;122.53;;;384.40;1100.80;;;;;;5071396;28;20029;-55
2022/03/14 11:39:58;;;;;;;22.08;14.82;;;384.00;1100.80;;;;;;5071894;28;20078;-55
2022/03/14 11:42:24;;;;;;;24.90;13.45;;;384.10;1100.80;;;;;;5071682;28;20039;-55
2022/03/14 11:44:51;;;;;;;28.45;16.70;;;384.10;1075.20;;;;;;5071425;28;20021;-60
2022/03/14 11:47:20;;;;;;;9.50;6.32;;;359.20;1100.80;;;;;;5071689;28;20032;-61
2022/03/14 11:49:47;;;;;;;17.80;10.35;;;359.00;1100.80;;;;;;5071479;28;20105;-54
2022/03/14 11:52:19;;;;;;;21.38;13.05;;;359.00;1126.40;;;;;;5071300;28;20111;-55
2022/03/14 11:54:48;;;;;;;38.38;33.28;;;358.80;1152.00;;;;;;5071345;28;20024;-56
2022/03/14 11:57:35;;;;;;;23.80;14.82;;;359.10;1126.40;;;;;;5071214;28;20467;-59
2022/03/14 12:00:21;;;;;;;19.92;11.85;;;358.80;1152.00;;;;;;5069963;28;20029;-58
2022/03/14 12:02:54;;;;;;;21.42;14.88;;;359.10;1126.40;;;;;;5056892;28;20036;-58
2022/03/14 12:05:44;;;;;;;18.58;12.00;;;384.00;1126.40;;;;;;5070884;28;20032;-59
2022/03/14 12:08:15;;;;;;;10.88;7.10;;;359.20;1100.80;;;;;;5069840;28;20418;-60
2022/03/14 12:10:41;;;;;;;8.68;6.63;;;384.00;1075.20;;;;;;5070826;28;20020;-61